Tug "trevor" — WCP6921 — position and weather

sailwx.info

Track history (hours):
 
Tides and Currents Weather Stations Pressure Air Temp Water Temp Dewpoint Dewpoint Depression Visibility Wind Speed Wind Dir Waves Ship Positions

Tug "trevor"

Owner: WEEKS MARINE, INC., CRANFORD, NJ. More information available from US FCC via Universal Licensing System and Coast Guard Vessel Documentation Center.

Last reported at 2014-Dec-17 15:12 UTC. Time now 2014-Dec-20 11:30 UTC.
Position N 29°56' W 091°28'.

Length 21 m; draft 2.9 m.

Type: Towing. MMSI: 366643140.

Date/timePositionNaut miles runAvg speedWind from/ knotsBaromVisibWave heightAir tempDewpointWater temp
2014-Dec-17 15:12N 29°56' W 091°28'4 6.5
2014-Dec-17 14:32N 29°52' W 091°25'7 6.6
2014-Dec-17 13:33N 29°47' W 091°21'6 6.4
2014-Dec-17 12:33N 29°45' W 091°14'5 5.4
2014-Dec-17 11:33N 29°41' W 091°10'5 5.5
2014-Dec-17 10:33N 29°38' W 091°05'2 1.6
2014-Dec-17 09:33N 29°38' W 091°03'2 1.5
2014-Dec-17 08:33N 29°38' W 091°05'3 2.8
2014-Dec-17 07:33N 29°39' W 091°08'3 2.8
2014-Dec-17 06:33N 29°41' W 091°10'2 2.4
2014-Dec-17 05:33N 29°42' W 091°13'4 3.6
2014-Dec-17 04:33N 29°45' W 091°14'4 3.8
2014-Dec-17 03:33N 29°46' W 091°18'4 4.0
2014-Dec-17 02:33N 29°48' W 091°22'4 4.1
2014-Dec-17 01:32N 29°51' W 091°25'  
Track history (hours):
 
Tides and Currents Weather Stations Pressure Air Temp Water Temp Dewpoint Dewpoint Depression Visibility Wind Speed Wind Dir Waves Ship Positions

Tug "trevor"

Owner: WEEKS MARINE, INC., CRANFORD, NJ. More information available from US FCC via Universal Licensing System and Coast Guard Vessel Documentation Center.

Last reported at 2014-Dec-17 15:12 UTC. Time now 2014-Dec-20 11:30 UTC.
Position N 29°56' W 091°28'.

Length 21 m; draft 2.9 m.

Type: Towing. MMSI: 366643140.

Date/timePositionNaut miles runAvg speedWind from/ knotsBaromVisibWave heightAir tempDewpointWater temp
2014-Dec-17 15:12N 29°56' W 091°28'4 6.5
2014-Dec-17 14:32N 29°52' W 091°25'7 6.6
2014-Dec-17 13:33N 29°47' W 091°21'6 6.4
2014-Dec-17 12:33N 29°45' W 091°14'5 5.4
2014-Dec-17 11:33N 29°41' W 091°10'5 5.5
2014-Dec-17 10:33N 29°38' W 091°05'2 1.6
2014-Dec-17 09:33N 29°38' W 091°03'2 1.5
2014-Dec-17 08:33N 29°38' W 091°05'3 2.8
2014-Dec-17 07:33N 29°39' W 091°08'3 2.8
2014-Dec-17 06:33N 29°41' W 091°10'2 2.4
2014-Dec-17 05:33N 29°42' W 091°13'4 3.6
2014-Dec-17 04:33N 29°45' W 091°14'4 3.8
2014-Dec-17 03:33N 29°46' W 091°18'4 4.0
2014-Dec-17 02:33N 29°48' W 091°22'4 4.1
2014-Dec-17 01:32N 29°51' W 091°25'  

Dump ship's entire track history